Time;durP1;ratioP1;P1;durP2;ratioP2;P2;SDS_P1;SDS_P2;PMS_P1;PMS_P2;Temp;Humidity;BMP_temperature;BMP_pressure;BME280_temperature;BME280_humidity;BME280_pressure;Samples;Min_cycle;Max_cycle;Signal;HPM_P1;HPM_P2
2022/08/19 00:01:20;;;;;;;18.70;15.85;;;19.90;99.90;;;;;;4322814;28;10000543;-76
2022/08/19 00:03:46;;;;;;;20.98;16.42;;;19.80;99.90;;;;;;5017946;28;20058;-76
2022/08/19 00:06:12;;;;;;;22.38;18.80;;;19.80;99.90;;;;;;5014291;28;20401;-75
2022/08/19 00:08:37;;;;;;;20.67;17.40;;;19.70;99.90;;;;;;5018797;28;20048;-75
2022/08/19 00:11:03;;;;;;;20.90;16.90;;;19.70;99.90;;;;;;5018990;28;20109;-75
2022/08/19 00:13:29;;;;;;;20.98;17.10;;;19.60;99.90;;;;;;5022116;28;20037;-76
2022/08/19 00:15:55;;;;;;;19.60;16.10;;;19.60;99.90;;;;;;5023228;28;20547;-75
2022/08/19 00:18:21;;;;;;;15.52;13.50;;;19.60;99.90;;;;;;5026433;28;20029;-76
2022/08/19 00:20:47;;;;;;;15.80;13.57;;;19.60;99.90;;;;;;5020669;28;20732;-75
2022/08/19 00:23:12;;;;;;;17.08;14.70;;;19.70;99.90;;;;;;5022265;28;20067;-76
2022/08/19 00:25:38;;;;;;;19.55;16.70;;;19.70;99.90;;;;;;5017611;28;20026;-76
2022/08/19 00:28:04;;;;;;;22.00;17.77;;;19.70;99.90;;;;;;5023041;28;20060;-75
2022/08/19 00:30:30;;;;;;;21.90;16.67;;;19.70;99.90;;;;;;5026535;28;20025;-75
2022/08/19 00:32:57;;;;;;;16.27;13.95;;;19.80;99.90;;;;;;5018297;28;20026;-75
2022/08/19 00:35:23;;;;;;;16.20;13.18;;;19.80;99.90;;;;;;5019144;28;20467;-76
2022/08/19 00:37:49;;;;;;;14.13;10.85;;;19.90;99.90;;;;;;5019569;28;20262;-76
2022/08/19 00:40:16;;;;;;;14.13;11.35;;;19.90;99.90;;;;;;5025122;28;20394;-75
2022/08/19 00:42:43;;;;;;;13.13;11.07;;;20.00;99.90;;;;;;5017008;28;20029;-75
2022/08/19 00:45:23;;;;;;;12.73;10.95;;;20.10;99.90;;;;;;5023790;28;20029;-75
2022/08/19 00:47:48;;;;;;;15.52;11.75;;;20.10;99.90;;;;;;5019693;28;20026;-75
2022/08/19 00:50:17;;;;;;;14.55;12.13;;;20.20;99.90;;;;;;5015531;28;20033;-76
2022/08/19 00:52:46;;;;;;;14.93;11.80;;;20.20;99.90;;;;;;5023559;28;20025;-76
2022/08/19 00:55:22;;;;;;;12.02;10.40;;;20.20;99.90;;;;;;5018039;28;20029;-76
2022/08/19 00:57:55;;;;;;;13.50;10.35;;;20.30;99.90;;;;;;5021552;28;20046;-75
2022/08/19 01:00:24;;;;;;;12.77;10.65;;;20.30;99.90;;;;;;5016269;28;20041;-75
2022/08/19 01:02:52;;;;;;;14.40;11.02;;;20.30;99.90;;;;;;5017749;28;20040;-75
2022/08/19 01:05:27;;;;;;;15.73;10.23;;;20.30;99.90;;;;;;5021519;28;20483;-76
2022/08/19 01:07:54;;;;;;;14.23;10.05;;;20.30;99.90;;;;;;5023908;28;20029;-75
2022/08/19 01:10:26;;;;;;;12.77;10.45;;;20.30;99.90;;;;;;5019160;28;20034;-76
2022/08/19 01:12:53;;;;;;;12.55;10.60;;;20.30;99.90;;;;;;5018149;28;20493;-75
2022/08/19 01:15:25;;;;;;;15.55;11.85;;;20.20;99.90;;;;;;5019832;28;20037;-75
2022/08/19 01:17:52;;;;;;;14.60;10.93;;;20.20;99.90;;;;;;5023548;28;20038;-75
2022/08/19 01:20:22;;;;;;;14.05;11.18;;;20.20;99.90;;;;;;5021159;28;20041;-75
2022/08/19 01:22:54;;;;;;;16.05;11.75;;;20.20;99.90;;;;;;5020154;28;20037;-76
2022/08/19 01:25:24;;;;;;;12.85;9.93;;;20.20;99.90;;;;;;5020232;28;20160;-76
2022/08/19 01:27:50;;;;;;;12.75;10.23;;;20.20;99.90;;;;;;5023545;28;20057;-76
2022/08/19 01:30:27;;;;;;;12.90;10.50;;;20.20;99.90;;;;;;5014979;28;20025;-76
2022/08/19 01:32:55;;;;;;;12.10;10.88;;;20.20;99.90;;;;;;5012286;28;20117;-76
2022/08/19 01:35:23;;;;;;;11.57;9.45;;;20.20;99.90;;;;;;5012410;28;20025;-75
2022/08/19 01:38:02;;;;;;;14.35;11.57;;;20.20;99.90;;;;;;5015149;28;20037;-75
2022/08/19 01:40:31;;;;;;;13.30;9.88;;;20.30;99.90;;;;;;5015824;28;20466;-75
2022/08/19 01:42:57;;;;;;;12.63;9.73;;;20.30;99.90;;;;;;5017497;28;20041;-75
2022/08/19 01:45:25;;;;;;;14.98;11.70;;;20.30;99.90;;;;;;5013424;28;20030;-75
2022/08/19 01:47:51;;;;;;;15.63;10.20;;;20.30;99.90;;;;;;5016278;28;20440;-75
2022/08/19 01:50:17;;;;;;;12.07;10.23;;;20.30;99.90;;;;;;5019012;28;20677;-75
2022/08/19 01:52:44;;;;;;;16.70;10.98;;;20.30;99.90;;;;;;5019105;28;20022;-75
2022/08/19 01:55:17;;;;;;;11.60;9.63;;;20.30;99.90;;;;;;5022647;28;20049;-75
2022/08/19 01:57:49;;;;;;;12.50;9.90;;;20.30;99.90;;;;;;5023158;28;20045;-75
2022/08/19 02:00:17;;;;;;;15.05;10.20;;;20.40;99.90;;;;;;5020371;28;20033;-75
2022/08/19 02:02:43;;;;;;;15.45;11.27;;;20.30;99.90;;;;;;5017116;28;20025;-76
2022/08/19 02:05:10;;;;;;;13.75;10.32;;;20.30;99.90;;;;;;5021192;28;20034;-75
2022/08/19 02:07:36;;;;;;;14.52;10.15;;;20.40;99.90;;;;;;5016393;28;20547;-75
2022/08/19 02:10:10;;;;;;;16.02;10.38;;;20.40;99.90;;;;;;5021191;28;20050;-75
2022/08/19 02:12:36;;;;;;;14.15;9.95;;;20.30;99.90;;;;;;5018458;28;20021;-75
2022/08/19 02:15:03;;;;;;;17.85;10.77;;;20.30;99.90;;;;;;5020621;28;20402;-75
2022/08/19 02:17:29;;;;;;;15.98;10.35;;;20.40;99.90;;;;;;5016248;28;20040;-75
2022/08/19 02:19:56;;;;;;;14.13;10.45;;;20.40;99.90;;;;;;5015962;28;20036;-75
2022/08/19 02:22:22;;;;;;;14.13;9.45;;;20.30;99.90;;;;;;5014412;28;20029;-75
2022/08/19 02:24:48;;;;;;;12.38;9.48;;;20.30;99.90;;;;;;5018555;28;20033;-75
2022/08/19 02:27:14;;;;;;;19.38;11.93;;;20.30;99.90;;;;;;5013332;28;20041;-75
2022/08/19 02:29:40;;;;;;;15.40;9.55;;;20.30;99.90;;;;;;5020514;28;20079;-75
2022/08/19 02:32:07;;;;;;;16.38;10.35;;;20.30;99.90;;;;;;5018302;28;20469;-75
2022/08/19 02:34:33;;;;;;;15.70;9.70;;;20.30;99.90;;;;;;5017576;28;20025;-75
2022/08/19 02:36:58;;;;;;;15.57;9.65;;;20.30;99.90;;;;;;5019671;28;20178;-75
2022/08/19 02:39:24;;;;;;;11.90;8.70;;;20.30;99.90;;;;;;5024460;28;20444;-75
2022/08/19 02:41:50;;;;;;;14.30;10.30;;;20.30;99.90;;;;;;5019835;28;20030;-75
2022/08/19 02:44:16;;;;;;;13.60;10.05;;;20.30;99.90;;;;;;5027769;28;20075;-75
2022/08/19 02:46:43;;;;;;;14.73;9.10;;;20.30;99.90;;;;;;5024130;28;20477;-75
2022/08/19 02:49:08;;;;;;;13.23;9.82;;;20.30;99.90;;;;;;5024925;28;20034;-76
2022/08/19 02:51:41;;;;;;;15.20;11.07;;;20.30;99.90;;;;;;5024096;28;20144;-75
2022/08/19 02:54:08;;;;;;;14.80;9.25;;;20.30;99.90;;;;;;5022667;28;20018;-76
2022/08/19 02:56:36;;;;;;;14.63;9.75;;;20.30;99.90;;;;;;5024481;28;20120;-76
2022/08/19 02:59:02;;;;;;;13.45;10.40;;;20.20;99.90;;;;;;5025760;28;20080;-75
2022/08/19 03:01:31;;;;;;;13.55;9.70;;;20.20;99.90;;;;;;5023385;28;20033;-75
2022/08/19 03:04:00;;;;;;;13.40;8.63;;;20.20;99.90;;;;;;5027247;28;20025;-75
2022/08/19 03:06:27;;;;;;;14.45;8.48;;;20.20;99.90;;;;;;5023485;28;20068;-76
2022/08/19 03:08:53;;;;;;;13.43;8.35;;;20.20;99.90;;;;;;5025799;28;20034;-75
2022/08/19 03:11:25;;;;;;;13.02;8.57;;;20.20;99.90;;;;;;5022294;28;20793;-75
2022/08/19 03:13:53;;;;;;;12.55;9.15;;;20.20;99.90;;;;;;5021456;28;20026;-75
2022/08/19 03:16:19;;;;;;;16.67;8.50;;;20.20;99.90;;;;;;5019084;28;20148;-75
2022/08/19 03:18:45;;;;;;;14.32;8.52;;;20.20;99.90;;;;;;5026039;28;20091;-75
2022/08/19 03:21:21;;;;;;;11.82;8.23;;;20.20;99.90;;;;;;5022385;28;20033;-75
2022/08/19 03:23:47;;;;;;;15.02;7.95;;;20.20;99.90;;;;;;5018384;28;20159;-75
2022/08/19 03:26:14;;;;;;;17.15;9.10;;;20.20;99.90;;;;;;5025795;28;20124;-75
2022/08/19 03:28:41;;;;;;;11.18;6.88;;;20.10;99.90;;;;;;5025470;28;20041;-75
2022/08/19 03:31:11;;;;;;;12.45;7.88;;;20.10;99.90;;;;;;5016331;28;20022;-75
2022/08/19 03:33:37;;;;;;;13.98;7.72;;;20.20;99.90;;;;;;5017254;28;20033;-75
2022/08/19 03:36:07;;;;;;;12.07;8.52;;;20.10;99.90;;;;;;5021661;28;20032;-75
2022/08/19 03:38:34;;;;;;;11.70;7.93;;;20.10;99.90;;;;;;5021789;28;20026;-75
2022/08/19 03:41:07;;;;;;;9.82;6.90;;;20.10;99.90;;;;;;5024162;28;20128;-75
2022/08/19 03:43:37;;;;;;;13.38;6.68;;;20.10;99.90;;;;;;5022229;28;20076;-75
2022/08/19 03:46:06;;;;;;;11.50;6.97;;;20.10;99.90;;;;;;5011769;28;20033;-75
2022/08/19 03:48:33;;;;;;;10.48;6.68;;;20.10;99.90;;;;;;5016104;28;20030;-75
2022/08/19 03:51:00;;;;;;;9.63;6.35;;;20.10;99.90;;;;;;5023472;28;20033;-76
2022/08/19 03:53:27;;;;;;;9.02;6.07;;;20.10;99.90;;;;;;5027072;28;20552;-75
2022/08/19 03:55:54;;;;;;;9.27;5.30;;;20.10;99.90;;;;;;5023467;28;20083;-74
2022/08/19 03:58:21;;;;;;;8.43;5.72;;;20.10;99.90;;;;;;5023273;28;20076;-75
2022/08/19 04:00:46;;;;;;;7.22;4.85;;;20.10;99.90;;;;;;5021243;28;20037;-75
2022/08/19 04:03:12;;;;;;;7.72;4.65;;;20.00;99.90;;;;;;5021124;28;20026;-75
2022/08/19 04:05:38;;;;;;;7.80;4.97;;;20.00;99.90;;;;;;5024558;28;20033;-75
2022/08/19 04:08:05;;;;;;;7.38;4.50;;;20.00;99.90;;;;;;5023591;28;20068;-75
2022/08/19 04:10:34;;;;;;;6.30;4.80;;;20.00;99.90;;;;;;5022281;28;20025;-75
2022/08/19 04:13:00;;;;;;;6.45;4.47;;;20.00;99.90;;;;;;5022438;28;20808;-75
2022/08/19 04:15:26;;;;;;;6.75;4.65;;;20.00;99.90;;;;;;5022099;28;20029;-75
2022/08/19 04:17:51;;;;;;;9.63;4.60;;;20.00;99.90;;;;;;5027171;28;20021;-75
2022/08/19 04:20:17;;;;;;;7.80;4.70;;;20.00;99.90;;;;;;5020358;28;20550;-75
2022/08/19 04:22:42;;;;;;;8.43;4.63;;;20.00;99.90;;;;;;5022711;28;20029;-75
2022/08/19 04:25:09;;;;;;;7.65;4.60;;;20.00;99.90;;;;;;5020472;28;20484;-75
2022/08/19 04:27:34;;;;;;;9.57;4.45;;;19.90;99.90;;;;;;5021247;28;20094;-75
2022/08/19 04:30:00;;;;;;;5.40;4.10;;;19.90;99.90;;;;;;5028355;28;20032;-75
2022/08/19 04:32:25;;;;;;;6.93;4.80;;;20.00;99.90;;;;;;5022188;28;20046;-75
2022/08/19 04:34:51;;;;;;;6.57;4.45;;;19.90;99.90;;;;;;5022566;28;20389;-75
2022/08/19 04:37:16;;;;;;;5.35;4.47;;;19.90;99.90;;;;;;5020088;28;20195;-75
2022/08/19 04:42:38;;;;;;;9.63;5.80;;;19.90;99.90;;;;;;5018745;28;20511;-75
2022/08/19 04:45:10;;;;;;;8.05;6.47;;;19.80;99.90;;;;;;5022751;28;20033;-75
2022/08/19 04:47:40;;;;;;;9.85;6.80;;;19.80;99.90;;;;;;5023013;28;20032;-75
2022/08/19 04:50:07;;;;;;;10.30;7.10;;;19.80;99.90;;;;;;5022572;28;20108;-76
2022/08/19 04:52:33;;;;;;;13.60;9.07;;;19.70;99.90;;;;;;5013973;28;20696;-75
2022/08/19 04:54:59;;;;;;;9.82;7.88;;;19.70;99.90;;;;;;5023181;28;20036;-75
2022/08/19 04:57:25;;;;;;;7.97;6.38;;;19.70;99.90;;;;;;5020307;28;20073;-75
2022/08/19 04:59:54;;;;;;;12.90;9.30;;;19.70;99.90;;;;;;5025200;28;20033;-75
2022/08/19 05:02:24;;;;;;;12.50;7.82;;;19.70;99.90;;;;;;5018648;28;20033;-75
2022/08/19 05:04:50;;;;;;;12.95;7.90;;;19.70;99.90;;;;;;5023786;28;20052;-75
2022/08/19 05:07:16;;;;;;;10.32;6.95;;;19.70;99.90;;;;;;5022009;28;20401;-75
2022/08/19 05:09:42;;;;;;;8.60;6.57;;;19.70;99.90;;;;;;5022156;28;20021;-75
2022/08/19 05:12:08;;;;;;;9.20;6.65;;;19.70;99.90;;;;;;5022341;28;20037;-76
2022/08/19 05:14:36;;;;;;;9.23;6.88;;;19.70;99.90;;;;;;5021564;28;20022;-75
2022/08/19 05:17:02;;;;;;;5.28;4.20;;;19.70;99.90;;;;;;5021347;28;20497;-74
2022/08/19 05:24:55;;;;;;;6.40;3.50;;;19.80;99.90;;;;;;5021259;28;20390;-75
2022/08/19 05:27:21;;;;;;;6.15;3.33;;;19.90;99.90;;;;;;5022200;28;20030;-75
2022/08/19 05:29:46;;;;;;;7.63;3.30;;;19.90;99.90;;;;;;5019912;28;20493;-76
2022/08/19 05:32:12;;;;;;;7.53;3.50;;;20.00;99.90;;;;;;5020064;28;20029;-75
2022/08/19 05:34:38;;;;;;;5.10;3.33;;;20.00;99.90;;;;;;5016021;28;20025;-75
2022/08/19 05:37:05;;;;;;;3.97;3.10;;;20.10;99.90;;;;;;5020025;28;20779;-75
2022/08/19 05:39:33;;;;;;;3.63;2.90;;;20.20;99.90;;;;;;5018402;28;20032;-75
2022/08/19 05:42:06;;;;;;;3.63;3.03;;;20.20;99.90;;;;;;5020150;28;20079;-75
2022/08/19 05:44:36;;;;;;;4.10;2.90;;;20.30;99.90;;;;;;5015213;28;20129;-75
2022/08/19 05:47:04;;;;;;;4.25;3.15;;;20.30;99.90;;;;;;5022738;28;20028;-75
2022/08/19 05:49:32;;;;;;;4.95;3.10;;;20.40;99.90;;;;;;5020183;28;20026;-75
2022/08/19 05:51:59;;;;;;;6.05;3.38;;;20.40;99.90;;;;;;5018409;28;20088;-75
2022/08/19 05:54:25;;;;;;;8.82;3.78;;;20.50;99.90;;;;;;5016319;28;20032;-75
2022/08/19 05:56:52;;;;;;;5.55;3.38;;;20.50;99.90;;;;;;5010460;28;20101;-75
2022/08/19 05:59:21;;;;;;;5.30;3.55;;;20.50;99.90;;;;;;5007844;28;20046;-75
2022/08/19 06:01:50;;;;;;;5.88;3.47;;;20.50;99.90;;;;;;5006155;28;20026;-75
2022/08/19 06:04:18;;;;;;;4.53;3.30;;;20.50;99.90;;;;;;5005511;28;20121;-75
2022/08/19 06:06:50;;;;;;;3.47;3.13;;;20.60;99.90;;;;;;5006022;28;20026;-75
2022/08/19 06:09:15;;;;;;;4.30;2.95;;;20.60;99.90;;;;;;5010965;28;20025;-75
2022/08/19 06:11:44;;;;;;;5.22;3.70;;;20.60;99.90;;;;;;5020344;28;20557;-75
2022/08/19 06:14:17;;;;;;;4.93;3.80;;;20.60;99.90;;;;;;5025127;28;20021;-75
2022/08/19 06:16:44;;;;;;;5.28;4.00;;;20.60;99.90;;;;;;5027452;28;20478;-75
2022/08/19 06:19:16;;;;;;;5.20;3.53;;;20.60;99.90;;;;;;5007943;28;20033;-75
2022/08/19 06:21:44;;;;;;;4.32;3.42;;;20.70;99.90;;;;;;5022649;28;20508;-75
2022/08/19 06:24:12;;;;;;;6.53;3.50;;;20.70;99.90;;;;;;5021719;28;20408;-75
2022/08/19 06:26:40;;;;;;;5.25;3.00;;;20.80;99.90;;;;;;5013093;28;20033;-75
2022/08/19 06:29:07;;;;;;;5.00;3.80;;;20.90;99.90;;;;;;5022353;28;20481;-75
2022/08/19 06:31:34;;;;;;;6.45;3.40;;;20.90;99.90;;;;;;5020721;28;20596;-76
2022/08/19 06:34:04;;;;;;;5.75;3.80;;;20.90;99.90;;;;;;5021489;28;20034;-75
2022/08/19 06:36:35;;;;;;;5.63;4.03;;;20.90;99.90;;;;;;5017576;28;20315;-75
2022/08/19 06:39:07;;;;;;;9.15;4.43;;;21.00;99.90;;;;;;5007587;28;20034;-75
2022/08/19 06:41:38;;;;;;;5.25;4.68;;;21.00;99.90;;;;;;5013785;28;20026;-75
2022/08/19 06:44:05;;;;;;;9.68;5.13;;;21.10;99.90;;;;;;5021212;28;20033;-75
2022/08/19 06:46:31;;;;;;;8.38;5.35;;;21.10;99.90;;;;;;5023445;28;20040;-75
2022/08/19 06:48:57;;;;;;;7.70;4.35;;;21.10;99.90;;;;;;5010749;28;20025;-75
2022/08/19 06:51:23;;;;;;;7.18;4.82;;;21.10;99.90;;;;;;5018086;28;20033;-75
2022/08/19 06:53:52;;;;;;;5.85;4.45;;;21.20;99.90;;;;;;5005703;28;20022;-75
2022/08/19 06:56:21;;;;;;;6.32;4.00;;;21.40;99.90;;;;;;5009075;28;20489;-75
2022/08/19 06:58:51;;;;;;;5.50;3.90;;;21.50;99.90;;;;;;5018554;28;20095;-75
2022/08/19 07:01:18;;;;;;;6.50;4.53;;;21.70;99.90;;;;;;5014100;28;20114;-75
2022/08/19 07:03:43;;;;;;;7.93;4.70;;;21.80;99.90;;;;;;5024562;28;20025;-75
2022/08/19 07:06:15;;;;;;;6.15;4.28;;;21.80;99.90;;;;;;5015592;28;20029;-75
2022/08/19 07:08:42;;;;;;;7.57;4.47;;;21.80;99.90;;;;;;5019697;28;20060;-75
2022/08/19 07:11:10;;;;;;;5.82;4.13;;;21.90;99.90;;;;;;5021129;28;20026;-75
2022/08/19 07:13:37;;;;;;;6.03;5.00;;;22.00;99.90;;;;;;5018870;28;20076;-75
2022/08/19 07:16:07;;;;;;;6.22;4.20;;;22.10;99.90;;;;;;5006927;28;20096;-75
2022/08/19 07:18:33;;;;;;;4.75;4.00;;;22.10;99.90;;;;;;5024264;28;20057;-75
2022/08/19 07:21:07;;;;;;;6.88;4.13;;;22.20;99.90;;;;;;5004368;28;20379;-75
2022/08/19 07:23:33;;;;;;;3.80;3.40;;;22.20;99.90;;;;;;5014588;28;20072;-75
2022/08/19 07:26:09;;;;;;;6.05;4.00;;;22.20;99.90;;;;;;5021090;28;20034;-75
2022/08/19 07:28:38;;;;;;;5.18;4.40;;;22.20;99.90;;;;;;5023714;28;20037;-75
2022/08/19 07:31:07;;;;;;;7.57;3.75;;;22.10;99.90;;;;;;5016909;28;20050;-75
2022/08/19 07:33:36;;;;;;;7.78;3.78;;;22.10;99.90;;;;;;5025886;28;20087;-74
2022/08/19 07:36:05;;;;;;;8.30;4.13;;;22.10;99.90;;;;;;5015535;28;20014;-75
2022/08/19 07:38:31;;;;;;;7.90;4.30;;;22.10;99.90;;;;;;5019988;28;20040;-75
2022/08/19 07:40:56;;;;;;;5.00;4.07;;;22.00;99.90;;;;;;5020029;28;20044;-75
2022/08/19 07:43:25;;;;;;;5.57;3.45;;;22.10;99.90;;;;;;5010568;28;20026;-75
2022/08/19 07:45:53;;;;;;;7.10;3.63;;;22.10;99.90;;;;;;5010693;28;20069;-75
2022/08/19 07:48:18;;;;;;;8.10;3.90;;;22.10;99.90;;;;;;5021309;28;20037;-75
2022/08/19 07:50:45;;;;;;;8.20;3.72;;;22.20;99.90;;;;;;5027604;28;20034;-75
2022/08/19 07:53:12;;;;;;;6.15;4.28;;;22.30;99.90;;;;;;5028051;28;20100;-75
2022/08/19 07:55:37;;;;;;;8.43;4.38;;;22.30;99.90;;;;;;5027442;28;20037;-75
2022/08/19 07:58:04;;;;;;;6.80;4.15;;;22.30;99.90;;;;;;5020394;28;20052;-75
2022/08/19 08:00:30;;;;;;;5.95;3.88;;;22.40;99.90;;;;;;4663504;28;10000494;-75
2022/08/19 08:02:55;;;;;;;5.40;3.83;;;22.40;99.90;;;;;;5009341;28;20030;-75
2022/08/19 08:10:50;;;;;;;5.80;3.33;;;22.70;99.90;;;;;;5021338;28;20041;-75
2022/08/19 08:13:16;;;;;;;5.32;4.50;;;22.90;99.90;;;;;;5023952;28;20018;-76
2022/08/19 08:15:44;;;;;;;7.68;3.80;;;23.10;99.90;;;;;;5026166;28;20374;-76
2022/08/19 08:18:11;;;;;;;8.00;4.57;;;23.20;99.90;;;;;;5018073;28;20041;-75
2022/08/19 08:20:37;;;;;;;6.15;4.22;;;23.50;99.90;;;;;;5022127;28;20032;-75
2022/08/19 08:25:48;;;;;;;3.97;2.70;;;23.50;99.90;;;;;;5023738;28;20234;-75
2022/08/19 08:28:15;;;;;;;4.03;3.20;;;23.50;99.90;;;;;;5015161;28;20128;-75
2022/08/19 08:30:43;;;;;;;4.85;4.30;;;23.50;99.90;;;;;;5024527;28;20062;-75
2022/08/19 08:33:09;;;;;;;6.47;3.25;;;23.60;99.90;;;;;;5023097;28;20087;-75
2022/08/19 08:35:35;;;;;;;6.60;3.65;;;23.40;99.90;;;;;;5006595;28;20022;-76
2022/08/19 08:38:04;;;;;;;4.75;3.55;;;23.30;99.90;;;;;;5017327;28;20436;-76
2022/08/19 08:40:50;;;;;;;7.45;3.53;;;23.30;99.90;;;;;;5013173;28;20029;-76
2022/08/19 08:43:21;;;;;;;3.80;2.90;;;23.20;99.90;;;;;;5024514;28;20493;-76
2022/08/19 08:45:53;;;;;;;4.78;2.85;;;23.20;99.90;;;;;;5018635;28;20452;-76
2022/08/19 08:48:26;;;;;;;5.03;3.10;;;23.20;99.90;;;;;;5024191;28;20781;-75
2022/08/19 08:50:56;;;;;;;4.05;3.10;;;23.30;99.90;;;;;;5021886;28;20065;-75
2022/08/19 08:53:23;;;;;;;7.07;2.95;;;23.30;99.90;;;;;;5021672;28;20034;-74
2022/08/19 08:55:48;;;;;;;5.35;3.05;;;23.40;99.90;;;;;;5020691;28;20091;-73
2022/08/19 08:58:47;;;;;;;3.60;2.95;;;23.50;99.90;;;;;;5011604;28;20049;-74
2022/08/19 09:01:13;;;;;;;5.05;2.78;;;23.70;99.90;;;;;;5018603;28;20037;-73
2022/08/19 09:03:41;;;;;;;4.80;2.53;;;24.00;99.90;;;;;;5030505;28;20033;-73
2022/08/19 09:06:32;;;;;;;3.85;3.20;;;24.10;99.90;;;;;;5016450;28;20037;-73
2022/08/19 09:09:03;;;;;;;4.22;3.25;;;24.10;99.90;;;;;;5012542;28;20036;-74
2022/08/19 09:12:03;;;;;;;6.90;3.80;;;23.90;99.90;;;;;;5014299;28;20121;-74
2022/08/19 09:14:40;;;;;;;7.70;4.55;;;23.80;99.90;;;;;;5025941;28;20026;-74
2022/08/19 09:17:09;;;;;;;5.63;3.90;;;23.80;99.90;;;;;;5025300;28;20036;-74
2022/08/19 09:19:48;;;;;;;4.88;3.67;;;23.80;99.90;;;;;;5024806;28;20509;-74
2022/08/19 09:22:14;;;;;;;4.00;3.20;;;23.80;99.90;;;;;;5020519;28;20480;-74
2022/08/19 09:24:40;;;;;;;4.45;3.70;;;23.80;99.90;;;;;;5007303;28;20477;-74
2022/08/19 09:27:06;;;;;;;4.63;2.78;;;23.70;99.90;;;;;;5011532;28;20037;-73
2022/08/19 09:29:31;;;;;;;3.95;2.83;;;23.70;99.90;;;;;;5013058;28;20467;-73
2022/08/19 09:31:57;;;;;;;2.95;2.65;;;23.80;99.90;;;;;;5021246;28;20481;-73
2022/08/19 09:34:22;;;;;;;3.33;2.70;;;23.90;99.90;;;;;;5025541;28;20025;-74
2022/08/19 09:36:52;;;;;;;3.63;2.70;;;24.00;99.90;;;;;;5026059;28;20116;-75
2022/08/19 09:39:18;;;;;;;4.85;2.80;;;24.10;99.90;;;;;;5024693;28;20098;-75
2022/08/19 09:41:44;;;;;;;2.80;2.30;;;24.10;99.90;;;;;;5024881;28;20112;-74
2022/08/19 09:44:11;;;;;;;6.25;3.00;;;24.10;99.90;;;;;;4321929;28;10000692;-74
2022/08/19 09:46:37;;;;;;;5.30;3.03;;;24.20;99.90;;;;;;5005402;28;20498;-74
2022/08/19 09:49:05;;;;;;;5.50;3.25;;;24.20;99.90;;;;;;5022384;28;20025;-74
2022/08/19 09:51:31;;;;;;;5.20;3.20;;;24.30;99.90;;;;;;5016391;28;20033;-74
2022/08/19 09:54:01;;;;;;;6.43;3.35;;;24.40;99.90;;;;;;5005164;28;20138;-73
2022/08/19 09:56:26;;;;;;;5.93;2.92;;;24.30;99.90;;;;;;5006329;28;20505;-74
2022/08/19 09:58:52;;;;;;;6.00;2.70;;;24.20;99.90;;;;;;5012724;28;20054;-74
2022/08/19 10:01:22;;;;;;;3.63;3.33;;;24.20;99.90;;;;;;5018797;28;20126;-74
2022/08/19 10:03:54;;;;;;;5.22;3.17;;;24.20;99.90;;;;;;5018469;28;20040;-74
2022/08/19 10:06:21;;;;;;;4.78;3.13;;;24.20;99.90;;;;;;5021337;28;20571;-74
2022/08/19 10:08:47;;;;;;;9.55;2.80;;;24.10;99.90;;;;;;5004855;28;20429;-74
2022/08/19 10:11:15;;;;;;;4.07;3.13;;;24.10;99.90;;;;;;5011255;28;20029;-74
2022/08/19 10:13:43;;;;;;;3.97;2.92;;;24.20;99.90;;;;;;5022411;28;20037;-74
2022/08/19 10:16:13;;;;;;;6.00;2.75;;;24.30;99.90;;;;;;5019548;28;20386;-74
2022/08/19 10:18:43;;;;;;;2.70;2.50;;;24.40;99.90;;;;;;5013302;28;20040;-74
2022/08/19 10:21:08;;;;;;;7.53;2.53;;;24.80;99.90;;;;;;5017346;28;20172;-74
2022/08/19 10:23:36;;;;;;;5.30;2.70;;;25.00;99.90;;;;;;5021572;28;20048;-74
2022/08/19 10:26:05;;;;;;;5.35;2.60;;;25.30;99.90;;;;;;5022451;28;20037;-74
2022/08/19 10:28:31;;;;;;;5.22;2.83;;;25.40;99.90;;;;;;5022165;28;20162;-74
2022/08/19 10:30:56;;;;;;;3.50;2.70;;;25.50;99.90;;;;;;5019982;28;20053;-75
2022/08/19 10:33:22;;;;;;;7.13;2.50;;;25.50;99.90;;;;;;5014631;28;20062;-74
2022/08/19 10:35:48;;;;;;;3.60;2.30;;;25.60;99.90;;;;;;5020034;28;20699;-74
2022/08/19 10:38:14;;;;;;;3.25;2.42;;;25.70;99.90;;;;;;5011611;28;20041;-76
2022/08/19 10:40:39;;;;;;;3.80;2.40;;;25.60;99.70;;;;;;5020707;28;20034;-76
2022/08/19 10:43:05;;;;;;;3.83;2.70;;;25.70;99.80;;;;;;5016518;28;20032;-75
2022/08/19 10:45:30;;;;;;;6.82;2.97;;;25.80;99.50;;;;;;5019947;28;20044;-75
2022/08/19 10:47:56;;;;;;;5.43;2.78;;;25.90;99.20;;;;;;5022025;28;20034;-75
2022/08/19 10:53:08;;;;;;;2.90;2.40;;;26.20;98.00;;;;;;5021125;28;20037;-75
2022/08/19 10:58:22;;;;;;;5.90;2.80;;;26.50;97.30;;;;;;5021463;28;20111;-74
2022/08/19 11:00:53;;;;;;;8.20;2.70;;;26.70;97.20;;;;;;5022452;28;20263;-75
2022/08/19 11:03:19;;;;;;;2.42;2.22;;;26.70;96.60;;;;;;5021761;28;20087;-75
2022/08/19 11:05:44;;;;;;;5.47;2.30;;;26.60;96.20;;;;;;5022553;28;20034;-75
2022/08/19 11:08:11;;;;;;;4.00;2.10;;;26.40;96.10;;;;;;5009821;28;20033;-74
2022/08/19 11:10:41;;;;;;;5.50;2.33;;;26.20;95.80;;;;;;5024335;28;20029;-74
2022/08/19 11:13:06;;;;;;;3.90;2.30;;;26.10;96.10;;;;;;5019990;28;20100;-74
2022/08/19 11:15:33;;;;;;;2.95;2.40;;;26.10;96.20;;;;;;5023156;28;20248;-74
2022/08/19 11:17:58;;;;;;;9.00;2.70;;;26.10;95.90;;;;;;5008224;28;20042;-73
2022/08/19 11:20:24;;;;;;;6.07;2.53;;;26.20;96.00;;;;;;5015056;28;20041;-74
2022/08/19 11:22:52;;;;;;;4.38;2.42;;;26.30;95.90;;;;;;5012617;28;20255;-74
2022/08/19 11:25:17;;;;;;;3.15;2.10;;;26.40;95.50;;;;;;5017532;28;20181;-75
2022/08/19 11:27:44;;;;;;;2.42;2.08;;;26.50;95.00;;;;;;5004243;28;20026;-75
2022/08/19 11:30:11;;;;;;;3.70;2.28;;;26.60;94.80;;;;;;5022616;28;20030;-74
2022/08/19 11:32:37;;;;;;;4.50;2.20;;;26.70;94.60;;;;;;5022053;28;20060;-74
2022/08/19 11:35:03;;;;;;;3.08;2.20;;;26.80;95.40;;;;;;5018760;28;20052;-75
2022/08/19 11:37:29;;;;;;;4.72;2.47;;;26.80;94.80;;;;;;5022236;28;20036;-75
2022/08/19 11:39:54;;;;;;;3.28;2.40;;;26.90;93.40;;;;;;5020196;28;20017;-75
2022/08/19 11:45:04;;;;;;;4.40;2.20;;;27.10;93.40;;;;;;5004345;28;20545;-75
2022/08/19 11:47:30;;;;;;;2.10;1.90;;;27.20;93.00;;;;;;5005744;28;20285;-74
2022/08/19 11:49:56;;;;;;;4.28;2.30;;;27.10;92.80;;;;;;5015019;28;20104;-74
2022/08/19 11:52:22;;;;;;;3.80;2.00;;;26.80;92.90;;;;;;5020211;28;20025;-75
2022/08/19 11:54:47;;;;;;;4.07;2.33;;;26.70;92.90;;;;;;5022751;28;20021;-74
2022/08/19 11:57:16;;;;;;;5.30;2.40;;;26.50;93.10;;;;;;5016001;28;20025;-75
2022/08/19 11:59:46;;;;;;;5.30;2.50;;;26.50;93.60;;;;;;5010908;28;20107;-73
2022/08/19 12:02:13;;;;;;;4.78;2.22;;;26.70;93.10;;;;;;5019652;28;20100;-75
2022/08/19 12:04:38;;;;;;;2.88;2.00;;;27.00;92.70;;;;;;5018582;28;20032;-75
2022/08/19 12:07:04;;;;;;;6.32;2.50;;;27.30;92.10;;;;;;5010128;28;20400;-75
2022/08/19 12:09:32;;;;;;;3.53;2.25;;;27.40;91.00;;;;;;5015628;28;20029;-76
2022/08/19 12:11:58;;;;;;;4.30;2.45;;;27.20;91.30;;;;;;5012531;28;20033;-75
2022/08/19 12:14:23;;;;;;;3.00;2.10;;;27.10;91.10;;;;;;5009279;28;20341;-75
2022/08/19 12:16:49;;;;;;;5.25;1.90;;;27.00;91.50;;;;;;5020943;28;20025;-75
2022/08/19 12:19:15;;;;;;;3.40;2.22;;;27.00;91.20;;;;;;5006444;28;20026;-75
2022/08/19 12:21:41;;;;;;;2.95;2.22;;;27.20;90.60;;;;;;5008930;28;20033;-75
2022/08/19 12:24:07;;;;;;;4.25;2.38;;;27.50;90.00;;;;;;5021243;28;20489;-75
2022/08/19 12:26:33;;;;;;;4.45;2.35;;;28.00;88.00;;;;;;5024544;28;20028;-75
2022/08/19 12:28:59;;;;;;;2.80;2.00;;;28.00;87.50;;;;;;5024894;28;20025;-75
2022/08/19 12:31:27;;;;;;;3.45;2.35;;;28.20;85.30;;;;;;5016166;28;20502;-75
2022/08/19 12:33:53;;;;;;;3.20;2.15;;;28.40;87.00;;;;;;5010463;28;20029;-74
2022/08/19 12:36:19;;;;;;;4.18;2.30;;;28.00;85.60;;;;;;5017629;28;20048;-76
2022/08/19 12:38:45;;;;;;;3.65;2.50;;;27.90;85.80;;;;;;5005726;28;20453;-76
2022/08/19 12:41:15;;;;;;;2.67;2.10;;;27.70;84.80;;;;;;5013320;28;20402;-76
2022/08/19 12:43:41;;;;;;;2.63;2.10;;;27.70;82.40;;;;;;5005149;28;20034;-75
2022/08/19 12:46:07;;;;;;;2.92;2.30;;;27.80;82.70;;;;;;5011683;28;20033;-76
2022/08/19 12:48:34;;;;;;;3.55;2.20;;;27.80;82.10;;;;;;5013800;28;20061;-76
2022/08/19 12:51:01;;;;;;;6.00;2.60;;;27.70;83.00;;;;;;5003405;28;20392;-77
2022/08/19 12:53:28;;;;;;;4.65;2.05;;;27.70;82.50;;;;;;5019951;28;20490;-77
2022/08/19 12:55:59;;;;;;;2.83;2.10;;;28.00;82.20;;;;;;5021686;28;20123;-77
2022/08/19 12:58:25;;;;;;;3.10;2.40;;;28.30;82.10;;;;;;5020618;28;20046;-77
2022/08/19 13:00:51;;;;;;;2.55;2.00;;;28.50;80.00;;;;;;5010040;28;20029;-77
2022/08/19 13:03:16;;;;;;;2.53;2.00;;;28.70;80.20;;;;;;5019904;28;20029;-76
2022/08/19 13:05:42;;;;;;;6.78;2.28;;;29.10;79.50;;;;;;5019542;28;20108;-76
2022/08/19 13:08:08;;;;;;;4.93;2.40;;;29.10;78.80;;;;;;5007814;28;20088;-76